Terminal Aerodrome Forecast
Issued by NWS Paducah, KY

Home | Current Version | Previous Version | Graphics & Text | Print | Product List | Glossary On
Versions: 1 2 3 4 5 6 7 8 9 10 11 12 13 14 15 16 17 18 19
673
FTUS43 KPAH 221720
TAFEVV
TAF
KEVV 221720Z 2218/2318 25006KT P6SM VCTS SCT030CB BKN100
     FM222100 28008KT P6SM SCT025 BKN150
     FM230100 30004KT P6SM BKN200
     FM231300 34007KT P6SM FEW250=

USA.gov is the U.S. government's official web portal to all federal, state and local government web resources and services.